Pensilva, United Kingdom
Current Conditions -  °F | °C
As of 12:50 PM on Thursday 30 Oct 2014 (Local Time) from EGHQ Reporting Station
Haze Haze  
Wind Chill: 57°   Ceiling: 200
Heat Index: 57°   Visibility: 1.2mi
Dew Point: 55°   Wind: 16mph
Humidity: 94%   Direction: 170°S
Pressure: 30"   Gusts: NA
Location:  50.5°N, 4.41°W
Report Text: EGHQ 301250Z 17014KT 2000 BR FEW000 BKN002 14/13 Q1016
Loading
Personal Weather Stations






























Interactive Weather Map
Tropical Storm Tracking
New forecast layout! Learn more

10-Day Weather Forecast

Advertisements
Track Severe Weather on mobile